Latest Weather Observations for Mount Boyce

IDN60801

Issued at 8:32 pm EST Sunday 25 June 2017 (issued every 30 minutes, with the page automatically refreshed every 10 minutes)

About weather observations | Map of weather stations | Latest weather observations for NSW | Other Formats
Station Details ID: 063292 Name: MOUNT BOYCE AWS Lat: -33.62 Lon: 150.27 Height: 1080.0 m
Data from the previous 72 hours. | See also: Recent months at Mount Boyce
Date/Time
EST
Temp
°C
App
Temp
°C
Dew
Point
°C
Rel
Hum
%
Delta-T
°C
Wind Press
QNH
hPa
Press
MSL
hPa
Rain since
9am
mm
Dir  Spd
km/h
Gust
km/h
Spd
kts
Gust
kts
25/08:30pm 5.0 -1.5 4.7 98 0.1 W 28 39 15 21 - - 0.0
25/08:00pm 5.1 -1.4 4.8 98 0.1 W 28 41 15 22 - - 0.0
25/07:30pm 5.2 -0.5 4.9 98 0.1 W 24 37 13 20 - - 0.0
25/07:00pm 5.3 -0.4 4.9 97 0.2 W 24 37 13 20 - - 0.0
25/06:30pm 5.5 0.2 4.8 95 0.3 W 22 33 12 18 - - 0.0
25/06:00pm 5.8 1.0 4.4 91 0.6 W 19 30 10 16 - - 0.0
25/05:30pm 6.5 0.3 4.5 87 0.9 WSW 26 43 14 23 - - 0.0
25/05:17pm 6.8 0.3 4.6 86 1.0 WSW 28 48 15 26 - - 0.0
25/05:00pm 6.9 0.8 4.6 85 1.1 WSW 26 43 14 23 - - 0.0
25/04:30pm 7.1 1.0 4.8 85 1.1 WSW 26 44 14 24 - - 0.0
25/04:15pm 7.2 0.7 4.9 85 1.1 WSW 28 46 15 25 - - 0.0
25/04:00pm 7.8 1.4 5.1 83 1.3 WSW 28 44 15 24 - - 0.0
25/03:30pm 8.0 0.1 4.6 79 1.6 WSW 35 57 19 31 - - 0.0
25/03:00pm 8.4 0.5 4.6 77 1.8 WSW 35 57 19 31 - - 0.0
25/02:40pm 8.7 1.2 4.7 76 1.9 WSW 33 52 18 28 - - 0.0
25/02:30pm 8.9 1.1 4.7 75 2.0 WSW 35 52 19 28 - - 0.0
25/02:00pm 9.6 1.8 5.0 73 2.2 WSW 35 54 19 29 - - 0.0
25/01:32pm 9.0 1.8 4.8 75 2.0 WSW 32 56 17 30 - - 0.0
25/01:30pm 9.2 2.0 5.0 75 2.0 WSW 32 46 17 25 - - 0.0
25/01:00pm 9.4 2.6 5.2 75 2.0 WSW 30 52 16 28 - - 0.0
25/12:37pm 8.6 1.1 4.4 75 2.0 W 33 67 18 36 - - 0.0
25/12:30pm 8.9 2.2 5.5 79 1.6 W 30 48 16 26 - - 0.0
25/12:00pm 8.0 -0.6 4.4 78 1.7 WSW 39 59 21 32 - - 0.0
25/11:31am 7.6 0.3 4.6 81 1.4 W 32 50 17 27 - - 0.0
25/11:30am 7.5 0.0 4.3 80 1.5 W 33 50 18 27 - - 0.0
25/11:02am 6.7 -1.3 3.9 82 1.3 WSW 35 54 19 29 - - 0.0
25/11:00am 6.7 -1.3 3.9 82 1.3 WSW 35 50 19 27 - - 0.0
25/10:51am 6.6 -1.4 3.9 83 1.2 WSW 35 54 19 29 - - 0.0
25/10:30am 5.9 -1.8 3.6 85 1.0 WSW 33 50 18 27 - - 0.0
25/10:01am 4.9 -2.3 3.2 89 0.8 WSW 30 48 16 26 - - 0.0
25/10:00am 5.0 -1.7 3.5 90 0.7 WSW 28 44 15 24 - - 0.0
25/09:30am 4.0 -2.8 3.1 94 0.4 W 28 43 15 23 - - 0.0
25/09:20am 3.8 -3.0 3.2 96 0.3 W 28 46 15 25 - - 0.0
25/09:00am 3.2 -4.0 2.9 98 0.1 W 30 46 16 25 - - 0.0
25/08:52am 3.0 -3.9 2.7 98 0.1 W 28 46 15 25 - - 0.0
25/08:30am 2.7 -5.0 2.4 98 0.1 W 32 46 17 25 - - 0.0
25/08:00am 2.3 -5.0 2.2 99 0.0 W 30 41 16 22 - - 0.0
25/07:30am 2.4 -4.9 2.3 99 0.0 W 30 41 16 22 - - 0.0
25/07:00am 2.5 -4.4 2.4 99 0.0 W 28 43 15 23 - - 0.0
25/06:30am 2.6 -5.1 2.5 99 0.0 W 32 46 17 25 - - 0.0
25/06:24am 2.7 -5.1 2.6 99 0.0 W 33 46 18 25 - - 0.0
25/06:00am 2.7 -4.9 2.6 99 0.0 W 32 46 17 25 - - 0.0
25/05:30am 2.9 -4.3 2.8 99 0.0 W 30 48 16 26 - - 0.0
25/05:00am 3.1 -4.5 3.0 99 0.0 W 32 52 17 28 - - 0.0
25/04:37am 3.1 -4.5 3.0 99 0.0 W 32 50 17 27 - - 0.0
25/04:30am 3.1 -4.7 3.0 99 0.0 W 33 46 18 25 - - 0.0
25/04:13am 3.1 -3.7 3.0 99 0.0 W 28 46 15 25 - - 0.0
25/04:00am 3.0 -3.1 2.9 99 0.0 W 24 35 13 19 - - 0.0
25/03:32am 3.0 -2.1 2.9 99 0.0 W 19 26 10 14 - - 0.0
25/03:30am 3.0 -2.1 2.9 99 0.0 W 19 30 10 16 - - 0.0
25/03:00am 3.0 -2.3 2.9 99 0.0 W 20 30 11 16 - - 0.0
25/02:30am 3.4 -1.8 3.3 99 0.0 WSW 20 28 11 15 - - 0.0
25/02:00am 3.5 -2.1 3.4 99 0.0 WSW 22 32 12 17 - - 0.0
25/01:30am 3.8 -2.1 3.7 99 0.0 W 24 32 13 17 - - 0.0
25/01:00am 4.0 -2.7 3.9 99 0.0 W 28 37 15 20 - - 0.0
25/12:30am 3.8 -2.1 3.7 99 0.0 W 24 35 13 19 - - 0.0
25/12:00am 3.8 -1.8 3.7 99 0.0 W 22 32 12 17 - - 0.0
 
Date/Time
EST
Temp
°C
App
Temp
°C
Dew
Point
°C
Rel
Hum
%
Delta-T
°C
Wind Press
QNH
hPa
Press
MSL
hPa
Rain since
9am
mm
Dir  Spd
km/h
Gust
km/h
Spd
kts
Gust
kts
24/11:30pm 4.0 -1.9 3.9 99 0.0 W 24 33 13 18 - - 0.0
24/11:00pm 3.8 -1.4 3.5 98 0.1 WSW 20 28 11 15 - - 0.0
24/10:30pm 4.1 -1.4 3.8 98 0.1 WSW 22 35 12 19 - - 0.0
24/10:00pm 4.3 -0.8 4.0 98 0.1 WSW 20 32 11 17 - - 0.0
24/09:30pm 4.7 -1.2 4.1 96 0.3 W 24 32 13 17 - - 0.0
24/09:00pm 4.8 -0.1 4.1 95 0.3 WSW 19 28 10 15 - - 0.0
24/08:30pm 4.8 0.2 3.8 93 0.4 WSW 17 26 9 14 - - 0.0
24/08:00pm 5.3 0.2 4.0 91 0.6 WSW 20 28 11 15 - - 0.0
24/07:30pm 5.5 -0.1 3.7 88 0.8 WSW 22 28 12 15 - - 0.0
24/07:00pm 5.6 0.4 3.6 87 0.9 WSW 20 28 11 15 - - 0.0
24/06:30pm 6.0 0.0 3.5 84 1.1 WSW 24 33 13 18 - - 0.0
24/06:00pm 6.5 0.6 3.7 82 1.3 WSW 24 37 13 20 - - 0.0
24/05:30pm 6.6 1.4 3.4 80 1.4 WSW 20 37 11 20 - - 0.0
24/05:00pm 7.1 1.9 3.5 78 1.6 WSW 20 32 11 17 - - 0.0
24/04:30pm 8.2 2.3 3.7 73 2.1 WSW 24 35 13 19 - - 0.0
24/04:00pm 8.8 1.3 3.4 69 2.5 WSW 32 52 17 28 - - 0.0
24/03:34pm 9.4 2.8 4.2 70 2.4 WSW 28 46 15 25 - - 0.0
24/03:30pm 9.5 3.3 4.5 71 2.4 WSW 26 46 14 25 - - 0.0
24/03:27pm 9.4 2.8 4.2 70 2.4 WSW 28 46 15 25 - - 0.0
24/03:00pm 9.8 2.9 4.8 71 2.4 WSW 30 43 16 23 - - 0.0
24/02:49pm 10.0 3.5 4.8 70 2.5 WSW 28 46 15 25 - - 0.0
24/02:30pm 10.1 4.1 5.1 71 2.4 WSW 26 46 14 25 - - 0.0
24/02:04pm 9.9 2.6 4.5 69 2.6 WSW 32 50 17 27 - - 0.0
24/02:00pm 9.8 2.3 4.2 68 2.6 WSW 33 46 18 25 - - 0.0
24/01:30pm 9.8 2.9 4.4 69 2.6 WSW 30 50 16 27 - - 0.0
24/01:26pm 10.1 2.9 4.9 70 2.5 WSW 32 50 17 27 - - 0.0
24/01:00pm 9.9 2.5 4.9 71 2.4 WSW 33 50 18 27 - - 0.0
24/12:30pm 9.2 1.7 4.2 71 2.3 WSW 33 52 18 28 - - 0.0
24/12:02pm 9.0 1.8 4.8 75 2.0 WSW 32 50 17 27 - - 0.0
24/12:00pm 8.7 1.2 4.3 74 2.1 WSW 33 50 18 27 - - 0.0
24/11:39am 8.3 0.8 4.3 76 1.9 WSW 33 52 18 28 - - 0.0
24/11:30am 8.3 1.1 4.9 79 1.6 WSW 32 44 17 24 - - 0.0
24/11:16am 7.9 0.6 4.5 79 1.6 WSW 32 50 17 27 - - 0.0
24/11:00am 7.9 1.0 4.8 81 1.5 WSW 30 43 16 23 - - 0.0
24/10:30am 6.8 1.1 5.1 89 0.8 WSW 24 33 13 18 - - 0.0
24/10:00am 6.2 0.5 4.7 90 0.7 WSW 24 35 13 19 - - 0.0
24/09:30am 5.9 0.4 4.2 89 0.8 WSW 22 35 12 19 - - 0.0
24/09:00am 5.0 -0.5 3.8 92 0.5 W 22 32 12 17 - - 0.0
24/08:30am 4.9 -0.3 3.6 91 0.6 W 20 32 11 17 - - 0.0
24/08:00am 4.3 -0.8 3.1 92 0.5 W 19 28 10 15 - - 0.0
24/07:30am 4.2 -0.6 2.7 90 0.7 WSW 17 33 9 18 - - 0.0
24/07:00am 4.6 -1.5 2.8 88 0.8 WSW 24 35 13 19 - - 0.0
24/06:30am 4.2 -1.2 2.4 88 0.8 WSW 20 28 11 15 - - 0.0
24/06:00am 4.6 -1.6 2.3 85 1.0 WSW 24 35 13 19 - - 0.0
24/05:30am 4.6 -2.0 2.3 85 1.0 WSW 26 37 14 20 - - 0.0
24/05:00am 4.7 -1.9 2.1 83 1.1 WSW 26 41 14 22 - - 0.0
24/04:30am 5.0 -2.7 2.2 82 1.2 WSW 32 44 17 24 - - 0.0
24/04:00am 4.6 -2.4 2.0 83 1.1 WSW 28 41 15 22 - - 0.0
24/03:30am 5.0 -2.8 2.0 81 1.3 WSW 32 54 17 29 - - 0.0
24/03:00am 4.9 -2.9 1.9 81 1.3 WSW 32 54 17 29 - - 0.0
24/02:30am 5.1 -2.6 2.1 81 1.3 WSW 32 50 17 27 - - 0.0
24/02:05am 5.3 -2.6 2.3 81 1.3 WSW 33 52 18 28 - - 0.0
24/02:00am 5.5 -2.8 2.3 80 1.4 WSW 35 50 19 27 - - 0.0
24/01:30am 5.8 -2.5 2.3 78 1.5 WSW 35 65 19 35 - - 0.0
24/01:00am 5.6 -2.1 2.1 78 1.5 WSW 32 54 17 29 - - 0.0
24/12:30am 5.5 -2.3 1.6 76 1.7 WSW 32 50 17 27 - - 0.0
24/12:00am 5.4 -1.6 1.9 78 1.5 WSW 28 48 15 26 - - 0.0
 
Date/Time
EST
Temp
°C
App
Temp
°C
Dew
Point
°C
Rel
Hum
%
Delta-T
°C
Wind Press
QNH
hPa
Press
MSL
hPa
Rain since
9am
mm
Dir  Spd
km/h
Gust
km/h
Spd
kts
Gust
kts
23/11:48pm 5.7 -1.7 1.6 75 1.8 WSW 30 50 16 27 - - 0.0
23/11:30pm 5.3 -0.5 2.3 81 1.3 WSW 22 44 12 24 - - 0.0
23/11:12pm 5.7 -1.2 2.4 79 1.4 WSW 28 46 15 25 - - 0.0
23/11:00pm 5.7 -1.6 2.7 81 1.3 WSW 30 43 16 23 - - 0.0
23/10:30pm 5.8 -1.4 3.1 83 1.2 WSW 30 54 16 29 - - 0.0
23/10:00pm 5.8 -1.7 3.5 85 1.0 W 32 50 17 27 - - 0.0
23/09:30pm 5.8 -0.9 3.8 87 0.9 W 28 48 15 26 - - 0.0
23/09:26pm 6.0 -0.7 3.8 86 1.0 W 28 48 15 26 - - 0.0
23/09:00pm 5.9 -0.7 4.1 88 0.8 W 28 44 15 24 - - 0.0
23/08:41pm 6.2 -0.4 4.2 87 0.9 WSW 28 48 15 26 - - 0.0
23/08:30pm 6.0 0.2 4.2 88 0.8 W 24 41 13 22 - - 0.0
23/08:03pm 6.3 -0.4 3.6 83 1.2 W 28 46 15 25 - - 0.0
23/08:00pm 6.3 -0.4 3.5 82 1.3 W 28 41 15 22 - - 0.0
23/07:37pm 6.6 -0.1 3.4 80 1.4 W 28 48 15 26 - - 0.0
23/07:30pm 6.4 0.4 3.4 81 1.4 W 24 44 13 24 - - 0.0
23/07:00pm 6.6 -0.1 3.6 81 1.4 W 28 48 15 26 - - 0.0
23/06:57pm 6.6 -0.1 3.6 81 1.4 W 28 48 15 26 - - 0.0
23/06:30pm 6.9 1.0 4.0 82 1.3 WSW 24 37 13 20 - - 0.0
23/06:00pm 7.0 1.5 4.0 81 1.4 W 22 41 12 22 - - 0.0
23/05:30pm 7.3 2.4 3.9 79 1.6 W 19 37 10 20 - - 0.0
23/05:00pm 8.0 0.5 3.7 74 2.0 W 32 52 17 28 - - 0.0
23/04:44pm 8.3 1.2 3.6 72 2.2 W 30 48 16 26 - - 0.0
23/04:30pm 8.7 2.8 3.9 72 2.2 W 24 37 13 20 - - 0.0
23/04:00pm 8.9 3.1 4.3 73 2.2 W 24 39 13 21 - - 0.0
23/03:37pm 9.4 2.8 4.2 70 2.4 W 28 46 15 25 - - 0.0
23/03:30pm 9.5 3.3 4.1 69 2.5 W 26 41 14 22 - - 0.0
23/03:00pm 9.8 3.0 3.1 63 3.1 W 28 48 15 26 - - 0.0
23/02:59pm 9.9 3.1 3.0 62 3.2 W 28 46 15 25 - - 0.0
23/02:30pm 10.1 4.3 4.3 67 2.8 W 24 33 13 18 - - 0.0
23/02:00pm 10.5 5.9 5.5 71 2.4 W 19 32 10 17 - - 0.0
23/01:30pm 10.1 3.9 4.3 67 2.8 WSW 26 43 14 23 - - 0.0
23/01:00pm 10.1 4.6 5.7 74 2.2 WSW 24 37 13 20 - - 0.0
23/12:30pm 9.8 4.7 5.8 76 2.0 WSW 22 35 12 19 - - 0.0
23/12:00pm 10.1 4.9 7.2 82 1.5 WSW 24 37 13 20 - - 0.0
23/11:30am 9.7 3.6 6.6 81 1.5 WSW 28 39 15 21 - - 0.0
23/11:10am 9.2 3.0 6.1 81 1.5 WSW 28 46 15 25 - - 0.0
23/11:00am 9.6 3.8 6.3 80 1.6 WSW 26 39 14 21 - - 0.0
23/10:30am 8.6 3.5 6.2 85 1.2 W 22 32 12 17 - - 0.0
23/10:00am 7.7 3.1 6.5 92 0.6 WSW 20 32 11 17 - - 0.0
23/09:30am 7.1 2.4 6.0 93 0.5 W 20 32 11 17 - - 0.0
23/09:00am 7.1 2.4 5.9 92 0.6 W 20 28 11 15 - - 0.0
23/08:30am 6.9 2.4 6.3 96 0.3 W 19 30 10 16 - - 0.0
23/08:00am 6.5 2.0 6.1 97 0.2 W 19 26 10 14 - - 0.0
23/07:30am 6.1 1.9 5.8 98 0.1 W 17 26 9 14 - - 0.0
23/07:00am 5.8 1.9 5.5 98 0.1 W 15 20 8 11 - - 0.0
23/06:30am 5.7 1.4 5.4 98 0.1 W 17 22 9 12 - - 0.0
23/06:00am 5.8 1.9 5.5 98 0.1 WSW 15 20 8 11 - - 0.0
23/05:30am 6.0 1.4 5.4 96 0.3 W 19 24 10 13 - - 0.0
23/05:00am 6.1 1.8 5.4 95 0.3 W 17 24 9 13 - - 0.0
23/04:30am 6.2 1.9 5.3 94 0.4 W 17 22 9 12 - - 0.0
23/04:00am 5.7 1.4 5.1 96 0.3 W 17 22 9 12 - - 0.0
23/03:30am 5.4 1.8 5.0 97 0.2 WSW 13 17 7 9 - - 0.0
23/03:00am 5.5 1.9 4.8 95 0.3 W 13 20 7 11 - - 0.0
23/02:30am 5.9 1.5 5.0 94 0.4 WSW 17 20 9 11 - - 0.0
23/02:00am 5.7 1.3 4.7 93 0.5 W 17 22 9 12 - - 0.0
23/01:30am 5.8 1.0 4.9 94 0.4 W 19 26 10 14 - - 0.0
23/01:00am 5.5 1.1 4.8 95 0.3 W 17 24 9 13 - - 0.0
23/12:30am 5.9 1.1 4.7 92 0.6 W 19 24 10 13 - - 0.0
23/12:00am 5.8 1.4 4.8 93 0.5 W 17 22 9 12 - - 0.0
 
Date/Time
EST
Temp
°C
App
Temp
°C
Dew
Point
°C
Rel
Hum
%
Delta-T
°C
Wind Press
QNH
hPa
Press
MSL
hPa
Rain since
9am
mm
Dir  Spd
km/h
Gust
km/h
Spd
kts
Gust
kts
22/11:30pm 6.0 1.3 5.0 93 0.5 W 19 24 10 13 - - 0.0
22/11:00pm 5.8 1.8 4.9 94 0.4 W 15 22 8 12 - - 0.0
22/10:30pm 5.9 1.6 5.3 96 0.3 W 17 24 9 13 - - 0.0
22/10:00pm 5.3 1.6 4.7 96 0.3 W 13 15 7 8 - - 0.0
22/09:30pm 5.7 2.7 4.3 91 0.6 W 9 11 5 6 - - 0.0
22/09:00pm 5.9 2.5 4.2 89 0.8 WSW 11 13 6 7 - - 0.0

Other Formats:

Comma delimited format used in spreadsheet applications
http://www.bom.gov.au/fwo/IDN60801/IDN60801.94743.axf

JavaScript Object Notation format (JSON) in row-major order
http://www.bom.gov.au/fwo/IDN60801/IDN60801.94743.json